Meadow Lake Airport
CYLJ : now visible

Airfield :











YOU CAN JOIN US ON...

 
LOGIN :

Register | Disclaimer

   EN    FR    IT 

 









Legend :    VFR   Marginal VFR   IFR   Intensive IFR   Very Intensive IFR
Visi :
Ceiling :
>= 8 km
>= 3000ft
5 to 8 km
1000 to 3000 ft
1500m to 5 km
500 to 1000 ft
800 to 1500m
200 to 500 ft
< 800m
< 200 ft
Symbols :   Thunderstorms  Fog  Heavy snow  Heavy precipitations  Wind > 20 kt






- Airport Elevation : 1576 ft
- IATA code : YLJ


CYLJ - Meadow Lake

CURRENT METAR :
  • 252200Z 24014KT 15SM FEW040 SCT300 M02/M11 A3021 RMK SC1CS3 SC TR SLP263

EXPIRED METARs :
  • 252100Z 23013G18KT 15SM FEW040 SCT300 M02/M11 A3024 RMK SC1CS3 SC TR SLP272
  • 252000Z 25008G15KT 15SM FEW039 M02/M11 A3027 RMK SC1 SLP283
  • 251940Z 24010G16KT 15SM FEW040 M02/M11 A3028 RMK SC1 SLP286

TAF N/A
CZWG FIR / North America



MET'MAP, your aeronautical weather chart ! - Copyright ORBIFLY December 2007 - Disclaimer

ORBIFLY MET'MAP TEAM :

Programming & Development : Alexandra Zaïnal
Concept & original design : Baudouin d'Aumeries
Assistance for programming : Marc-Olivier Méhu
Technical & hardware support : Manuel Goepfert

Contact : metmap@orbifly.com




SOURCES & CREDITS :

   NOAA       Earth
Advisory